createdAt,value
2023-09-15T00:01:43.298Z,10.07
2023-09-15T00:04:12.797Z,7.80
2023-09-15T00:06:40.755Z,9.27
2023-09-15T00:09:16.571Z,7.30
2023-09-15T00:14:15.440Z,9.68
2023-09-15T00:16:45.036Z,7.07
2023-09-15T00:19:17.383Z,9.52
2023-09-15T00:21:48.526Z,8.98
2023-09-15T00:24:16.197Z,6.90
2023-09-15T00:26:44.558Z,9.73
2023-09-15T00:29:12.996Z,7.15
2023-09-15T00:31:41.322Z,8.63
2023-09-15T00:34:08.612Z,9.55
2023-09-15T00:36:36.419Z,8.93
2023-09-15T00:39:03.898Z,7.88
2023-09-15T00:41:30.756Z,5.70
2023-09-15T00:43:57.518Z,9.55
2023-09-15T00:46:24.617Z,7.30
2023-09-15T00:48:53.082Z,9.65
2023-09-15T00:51:22.384Z,6.55
2023-09-15T00:53:49.171Z,7.88
2023-09-15T00:56:17.866Z,10.95
2023-09-15T00:58:45.982Z,8.02
2023-09-15T01:05:46.554Z,9.60
2023-09-15T01:08:17.152Z,7.88
2023-09-15T01:10:43.902Z,7.60
2023-09-15T01:13:12.046Z,9.70
2023-09-15T01:16:04.172Z,11.10
2023-09-15T01:18:40.148Z,8.90
2023-09-15T01:24:26.820Z,7.38
2023-09-15T01:27:43.418Z,9.10
2023-09-15T01:30:11.797Z,8.35
2023-09-15T01:32:39.513Z,11.43
2023-09-15T01:35:06.911Z,7.00
2023-09-15T01:37:33.683Z,8.95
2023-09-15T01:40:00.827Z,12.70
2023-09-15T01:42:27.938Z,7.25
2023-09-15T01:44:55.871Z,8.63
2023-09-15T01:47:24.094Z,6.47
2023-09-15T01:49:54.501Z,6.53
2023-09-15T01:52:23.372Z,9.63
2023-09-15T01:54:52.745Z,10.13
2023-09-15T01:57:20.156Z,9.27
2023-09-15T01:59:47.005Z,6.75
2023-09-15T02:02:13.865Z,9.07
2023-09-15T02:04:41.839Z,10.13
2023-09-15T02:07:12.011Z,9.98
2023-09-15T02:09:39.282Z,14.93
2023-09-15T02:12:06.332Z,11.52
2023-09-15T02:14:36.001Z,8.75
2023-09-15T02:17:03.717Z,7.82
2023-09-15T02:19:30.612Z,7.63
2023-09-15T02:21:59.512Z,10.82
2023-09-15T02:24:27.257Z,10.13
2023-09-15T02:26:54.216Z,9.18
2023-09-15T02:29:20.978Z,8.82
2023-09-15T02:31:49.151Z,9.82
2023-09-15T02:34:16.040Z,7.95
2023-09-15T02:36:45.043Z,7.75
2023-09-15T02:39:11.812Z,10.75
2023-09-15T02:41:38.627Z,9.02
2023-09-15T02:44:05.903Z,8.52
2023-09-15T02:46:33.784Z,10.65
2023-09-15T02:49:01.206Z,7.95
2023-09-15T02:51:28.078Z,9.68
2023-09-15T02:53:55.022Z,9.55
2023-09-15T02:56:23.987Z,10.50
2023-09-15T02:58:51.166Z,10.93
2023-09-15T03:01:18.017Z,11.68
2023-09-15T03:03:50.868Z,13.88
2023-09-15T03:06:18.686Z,6.65
2023-09-15T03:08:46.345Z,14.10
2023-09-15T03:11:18.069Z,8.77
2023-09-15T03:13:45.706Z,13.25
2023-09-15T03:16:14.331Z,14.73
2023-09-15T03:18:43.748Z,12.00
2023-09-15T03:21:11.778Z,9.55
2023-09-15T03:23:38.864Z,11.07
2023-09-15T03:26:06.278Z,11.60
2023-09-15T03:28:37.573Z,10.65
2023-09-15T03:31:05.127Z,8.93
2023-09-15T03:33:33.239Z,9.77
2023-09-15T03:36:01.161Z,8.50
2023-09-15T03:38:28.028Z,10.48
2023-09-15T03:40:54.775Z,12.30
2023-09-15T03:43:21.775Z,15.32
2023-09-15T03:45:49.468Z,11.48
2023-09-15T03:48:17.167Z,12.50
2023-09-15T03:50:44.737Z,8.85
2023-09-15T03:53:12.460Z,10.68
2023-09-15T03:55:40.417Z,15.60
2023-09-15T03:58:07.728Z,7.32
2023-09-15T04:00:34.472Z,7.55
2023-09-15T04:03:01.504Z,9.93
2023-09-15T04:05:28.406Z,11.13
2023-09-15T04:07:55.379Z,10.00
2023-09-15T04:10:22.382Z,7.15
2023-09-15T04:12:50.384Z,10.55
2023-09-15T04:15:18.114Z,12.10
2023-09-15T04:17:45.793Z,11.27
2023-09-15T04:20:13.381Z,11.80
2023-09-15T04:22:42.790Z,12.35
2023-09-15T04:25:13.059Z,6.32
2023-09-15T04:27:42.799Z,11.40
2023-09-15T04:30:10.276Z,10.80
2023-09-15T04:32:42.127Z,10.13
2023-09-15T04:35:14.070Z,12.68
2023-09-15T04:37:41.233Z,16.38
2023-09-15T04:40:09.945Z,10.43
2023-09-15T04:42:41.239Z,12.07
2023-09-15T04:45:08.793Z,17.98
2023-09-15T04:47:38.561Z,7.57
2023-09-15T04:50:17.834Z,11.25
2023-09-15T04:52:45.072Z,12.57
2023-09-15T04:55:12.369Z,9.38
2023-09-15T04:57:39.955Z,11.70
2023-09-15T05:00:13.729Z,9.98
2023-09-15T05:02:46.309Z,8.85
2023-09-15T05:05:16.109Z,9.10
2023-09-15T05:07:42.905Z,14.63
2023-09-15T05:10:10.032Z,8.70
2023-09-15T05:12:37.020Z,10.45
2023-09-15T05:15:04.629Z,11.40
2023-09-15T05:17:34.360Z,9.30
2023-09-15T05:20:01.122Z,9.85
2023-09-15T05:22:28.103Z,10.98
2023-09-15T05:24:56.899Z,7.13
2023-09-15T05:27:23.888Z,10.40
2023-09-15T05:29:51.967Z,9.25
2023-09-15T05:32:18.741Z,9.80
2023-09-15T05:34:45.580Z,12.10
2023-09-15T05:37:13.218Z,8.13
2023-09-15T05:39:40.755Z,10.93
2023-09-15T05:42:07.711Z,12.05
2023-09-15T05:44:34.444Z,8.13
2023-09-15T05:47:02.095Z,10.40
2023-09-15T05:49:30.851Z,9.13
2023-09-15T05:51:58.408Z,11.73
2023-09-15T05:54:27.419Z,5.57
2023-09-15T05:56:54.372Z,5.10
2023-09-15T05:59:21.201Z,6.47
2023-09-15T06:01:49.070Z,12.00
2023-09-15T06:04:16.435Z,13.05
2023-09-15T06:06:43.609Z,4.80
2023-09-15T06:09:10.450Z,9.02
2023-09-15T06:11:37.241Z,4.07
2023-09-15T06:14:04.141Z,4.82
2023-09-15T06:16:35.353Z,6.47
2023-09-15T06:19:03.505Z,7.47
2023-09-15T06:21:31.092Z,3.72
2023-09-15T06:23:57.852Z,6.80
2023-09-15T06:26:25.084Z,5.03
2023-09-15T06:28:51.948Z,5.97
2023-09-15T06:31:20.054Z,6.70
2023-09-15T06:33:47.012Z,9.32
2023-09-15T06:36:14.517Z,5.68
2023-09-15T06:38:41.308Z,4.45
2023-09-15T06:41:08.058Z,4.18
2023-09-15T06:43:34.820Z,5.53
2023-09-15T06:46:01.629Z,4.57
2023-09-15T06:48:28.392Z,4.43
2023-09-15T06:50:55.053Z,4.28
2023-09-15T06:53:21.800Z,5.50
2023-09-15T06:55:48.550Z,5.68
2023-09-15T06:58:15.317Z,8.95
2023-09-15T07:00:42.152Z,5.10
2023-09-15T07:03:08.935Z,3.83
2023-09-15T07:05:39.115Z,8.77
2023-09-15T07:08:06.092Z,5.30
2023-09-15T07:10:32.905Z,4.07
2023-09-15T07:12:59.606Z,3.55
2023-09-15T07:15:27.252Z,4.47
2023-09-15T07:17:53.989Z,4.75
2023-09-15T07:20:21.219Z,5.82
2023-09-15T07:22:48.354Z,7.60
2023-09-15T07:25:15.222Z,7.60
2023-09-15T07:27:44.982Z,5.85
2023-09-15T07:30:13.544Z,4.32
2023-09-15T07:32:41.002Z,6.90
2023-09-15T07:35:10.153Z,6.20
2023-09-15T07:37:37.183Z,7.78
2023-09-15T07:40:04.447Z,8.77
2023-09-15T07:42:31.128Z,5.55
2023-09-15T07:44:58.012Z,6.13
2023-09-15T07:47:25.470Z,6.97
2023-09-15T07:49:58.344Z,3.85
2023-09-15T07:52:26.314Z,6.07
2023-09-15T07:54:53.346Z,4.32
2023-09-15T07:57:20.114Z,6.82
2023-09-15T07:59:47.310Z,4.53
2023-09-15T08:02:15.124Z,7.13
2023-09-15T08:04:42.968Z,4.30
2023-09-15T08:07:10.350Z,6.35
2023-09-15T08:09:37.417Z,7.68
2023-09-15T08:12:04.368Z,10.23
2023-09-15T08:14:31.157Z,6.20
2023-09-15T08:16:58.845Z,7.03
2023-09-15T08:19:25.869Z,5.20
2023-09-15T08:21:52.714Z,5.85
2023-09-15T08:24:21.267Z,5.13
2023-09-15T08:26:48.540Z,3.03
2023-09-15T08:29:15.330Z,6.03
2023-09-15T08:31:42.328Z,5.65
2023-09-15T08:34:09.235Z,5.40
2023-09-15T08:36:36.017Z,5.03
2023-09-15T08:39:03.371Z,6.45
2023-09-15T08:41:46.795Z,5.50
2023-09-15T08:44:17.190Z,6.32
2023-09-15T08:46:44.775Z,8.32
2023-09-15T08:49:12.138Z,8.80
2023-09-15T08:51:42.206Z,6.93
2023-09-15T08:54:09.590Z,5.72
2023-09-15T08:56:37.656Z,6.45
2023-09-15T08:59:05.860Z,8.57
2023-09-15T09:01:34.047Z,6.25
2023-09-15T09:04:00.925Z,5.32
2023-09-15T09:06:29.478Z,6.22
2023-09-15T09:08:56.530Z,5.38
2023-09-15T09:11:24.458Z,5.00
2023-09-15T09:13:53.851Z,4.82
2023-09-15T09:16:22.302Z,5.47
2023-09-15T09:19:01.692Z,3.40
2023-09-15T09:21:30.575Z,4.53
2023-09-15T09:23:58.339Z,4.78
2023-09-15T09:26:25.359Z,6.65
2023-09-15T09:28:58.034Z,4.13
2023-09-15T09:31:30.002Z,5.43
2023-09-15T09:33:59.844Z,5.20
2023-09-15T09:36:27.242Z,5.28
2023-09-15T09:38:54.298Z,3.38
2023-09-15T09:41:27.444Z,5.13
2023-09-15T09:43:55.195Z,5.82
2023-09-15T09:46:22.880Z,4.00
2023-09-15T09:48:52.563Z,3.92
2023-09-15T09:51:20.571Z,3.13
2023-09-15T09:53:48.505Z,5.05
2023-09-15T09:56:17.457Z,6.43
2023-09-15T09:58:45.390Z,4.18
2023-09-15T10:01:12.985Z,4.00
2023-09-15T10:03:41.158Z,4.78
2023-09-15T10:06:09.620Z,5.05
2023-09-15T10:08:40.913Z,3.40
2023-09-15T10:11:08.963Z,6.07
2023-09-15T10:13:37.267Z,4.53
2023-09-15T10:16:04.262Z,3.03
2023-09-15T10:18:31.990Z,4.03
2023-09-15T10:20:58.951Z,5.45
2023-09-15T10:23:25.724Z,3.25
2023-09-15T10:25:54.774Z,6.07
2023-09-15T10:28:41.404Z,6.38
2023-09-15T10:31:13.339Z,6.47
2023-09-15T10:33:43.571Z,4.47
2023-09-15T10:36:15.456Z,5.63
2023-09-15T10:38:43.135Z,5.55
2023-09-15T10:41:12.240Z,5.43
2023-09-15T10:43:51.135Z,4.97
2023-09-15T10:46:17.947Z,5.05
2023-09-15T10:48:50.595Z,4.30
2023-09-15T10:51:20.495Z,4.15
2023-09-15T10:53:49.698Z,7.13
2023-09-15T10:56:18.954Z,4.38
2023-09-15T10:58:50.411Z,4.15
2023-09-15T11:01:19.689Z,3.03
2023-09-15T11:03:47.027Z,4.82
2023-09-15T11:06:19.568Z,7.93
2023-09-15T11:08:46.590Z,2.15
2023-09-15T11:11:13.812Z,3.72
2023-09-15T11:13:41.926Z,4.88
2023-09-15T11:16:11.177Z,4.35
2023-09-15T11:18:39.701Z,3.95
2023-09-15T11:21:07.489Z,5.55
2023-09-15T11:23:38.740Z,5.07
2023-09-15T11:26:25.202Z,4.30
2023-09-15T11:28:54.858Z,9.85
2023-09-15T11:31:23.973Z,3.08
2023-09-15T11:33:53.901Z,2.92
2023-09-15T11:36:22.670Z,4.50
2023-09-15T11:38:50.082Z,2.72
2023-09-15T11:41:17.786Z,3.15
2023-09-15T11:43:45.566Z,2.20
2023-09-15T11:46:14.956Z,2.55
2023-09-15T11:48:42.550Z,2.83
2023-09-15T11:51:14.796Z,3.85
2023-09-15T11:53:43.203Z,3.90
2023-09-15T11:56:10.276Z,2.00
2023-09-15T11:58:37.639Z,2.50
2023-09-15T12:01:05.722Z,4.50
2023-09-15T12:03:33.613Z,2.30
2023-09-15T12:06:02.753Z,3.15
2023-09-15T12:08:29.659Z,1.90
2023-09-15T12:11:11.594Z,3.83
2023-09-15T12:13:39.011Z,3.53
2023-09-15T12:16:06.040Z,2.90
2023-09-15T12:18:39.596Z,2.10
2023-09-15T12:21:13.914Z,1.20
2023-09-15T12:26:12.140Z,3.22
2023-09-15T12:28:39.180Z,2.33
2023-09-15T12:31:06.141Z,2.35
2023-09-15T12:33:33.736Z,1.60
2023-09-15T12:36:07.255Z,1.52
2023-09-15T12:38:34.076Z,2.80
2023-09-15T12:41:01.103Z,4.95
2023-09-15T12:43:27.819Z,3.90
2023-09-15T12:45:55.208Z,3.10
2023-09-15T12:48:23.440Z,4.10
2023-09-15T12:50:50.542Z,1.88
2023-09-15T12:53:17.432Z,2.05
2023-09-15T12:55:44.333Z,3.03
2023-09-15T12:58:11.164Z,2.53
2023-09-15T13:00:38.337Z,3.05
2023-09-15T13:03:06.841Z,1.40
2023-09-15T13:05:33.948Z,1.20
2023-09-15T13:08:00.769Z,1.83
2023-09-15T13:10:27.542Z,3.00
2023-09-15T13:12:57.074Z,2.65
2023-09-15T13:15:24.100Z,1.70
2023-09-15T13:17:51.214Z,3.03
2023-09-15T13:20:18.428Z,2.10
2023-09-15T13:22:45.335Z,2.92
2023-09-15T13:25:12.472Z,3.17
2023-09-15T13:27:44.104Z,2.33
2023-09-15T13:30:15.654Z,1.38
2023-09-15T13:32:45.135Z,2.75
2023-09-15T13:35:14.105Z,2.92
2023-09-15T13:37:41.889Z,2.35
2023-09-15T13:40:09.256Z,1.92
2023-09-15T13:42:38.236Z,2.42
2023-09-15T13:45:06.874Z,2.75
2023-09-15T13:47:36.053Z,1.70
2023-09-15T13:50:06.875Z,1.83
2023-09-15T13:52:33.948Z,2.00
2023-09-15T13:55:01.023Z,2.30
2023-09-15T13:57:29.585Z,2.38
2023-09-15T13:59:57.730Z,3.30
2023-09-15T14:02:26.647Z,5.38
2023-09-15T14:04:53.866Z,2.38
2023-09-15T14:07:20.765Z,2.15
2023-09-15T14:09:48.080Z,3.30
2023-09-15T14:12:15.059Z,1.92
2023-09-15T14:14:41.840Z,1.42
2023-09-15T14:17:09.083Z,2.53
2023-09-15T14:19:36.460Z,1.73
2023-09-15T14:22:04.545Z,3.30
2023-09-15T14:24:35.654Z,2.50
2023-09-15T14:27:04.212Z,1.50
2023-09-15T14:29:31.313Z,3.08
2023-09-15T14:32:01.607Z,2.25
2023-09-15T14:34:28.998Z,1.80
2023-09-15T14:37:01.463Z,1.70
2023-09-15T14:39:29.680Z,1.42
2023-09-15T14:41:57.014Z,3.78
2023-09-15T14:44:24.318Z,5.50
2023-09-15T14:46:55.140Z,1.95
2023-09-15T14:49:25.562Z,1.50
2023-09-15T14:51:52.315Z,1.77
2023-09-15T14:54:21.943Z,3.60
2023-09-15T14:56:48.776Z,3.08
2023-09-15T14:59:15.484Z,1.88
2023-09-15T15:01:42.251Z,2.00
2023-09-15T15:04:09.461Z,3.22
2023-09-15T15:06:37.146Z,1.77
2023-09-15T15:09:05.076Z,1.90
2023-09-15T15:11:31.934Z,2.35
2023-09-15T15:13:59.364Z,2.55
2023-09-15T15:16:26.260Z,2.78
2023-09-15T15:19:02.660Z,2.00
2023-09-15T15:21:33.269Z,2.13
2023-09-15T15:24:00.348Z,2.33
2023-09-15T15:26:28.166Z,4.13
2023-09-15T15:28:55.081Z,2.60
2023-09-15T15:31:21.824Z,3.25
2023-09-15T15:33:48.794Z,3.38
2023-09-15T15:36:15.686Z,3.38
2023-09-15T15:38:42.438Z,4.55
2023-09-15T15:41:11.009Z,2.80
2023-09-15T15:43:40.206Z,1.92
2023-09-15T15:46:09.608Z,2.97
2023-09-15T15:48:37.777Z,2.15
2023-09-15T15:51:06.375Z,3.00
2023-09-15T15:53:35.283Z,2.38
2023-09-15T15:56:03.833Z,2.25
2023-09-15T15:58:30.804Z,3.65
2023-09-15T16:00:57.620Z,5.68
2023-09-15T16:03:25.743Z,2.45
2023-09-15T16:05:57.108Z,2.20
2023-09-15T16:08:25.231Z,2.55
2023-09-15T16:10:52.177Z,4.57
2023-09-15T16:13:18.952Z,8.50
2023-09-15T16:15:47.381Z,4.95
2023-09-15T16:20:46.857Z,2.75
2023-09-15T16:23:13.859Z,7.68
2023-09-15T16:25:42.007Z,13.07
2023-09-15T16:28:09.058Z,3.70
2023-09-15T16:30:41.103Z,4.97
2023-09-15T16:33:10.639Z,1.52
2023-09-15T16:35:39.835Z,2.97
2023-09-15T16:38:07.055Z,1.77
2023-09-15T16:40:37.068Z,3.05
2023-09-15T16:43:05.036Z,2.67
2023-09-15T16:45:33.468Z,6.47
2023-09-15T16:48:01.456Z,2.67
2023-09-15T16:50:28.914Z,4.13
2023-09-15T16:52:56.807Z,2.20
2023-09-15T16:55:24.330Z,2.60
2023-09-15T16:57:52.523Z,3.25
2023-09-15T17:00:19.408Z,7.03
2023-09-15T17:02:46.282Z,4.20
2023-09-15T17:05:16.181Z,3.53
2023-09-15T17:07:42.922Z,2.95
2023-09-15T17:10:13.341Z,4.63
2023-09-15T17:12:43.952Z,2.55
2023-09-15T17:15:12.304Z,3.75
2023-09-15T17:17:41.279Z,2.95
2023-09-15T17:20:10.363Z,3.67
2023-09-15T17:22:37.423Z,4.50
2023-09-15T17:25:04.501Z,3.90
2023-09-15T17:27:31.801Z,4.35
2023-09-15T17:29:58.756Z,4.75
2023-09-15T17:32:25.517Z,2.30
2023-09-15T17:34:52.695Z,5.18
2023-09-15T17:37:19.510Z,5.93
2023-09-15T17:39:51.384Z,5.15
2023-09-15T17:42:19.642Z,3.10
2023-09-15T17:44:46.596Z,6.50
2023-09-15T17:47:13.385Z,3.85
2023-09-15T17:49:41.446Z,4.28
2023-09-15T17:52:10.660Z,5.18
2023-09-15T17:54:37.522Z,5.25
2023-09-15T17:57:04.665Z,3.65
2023-09-15T17:59:31.419Z,3.92
2023-09-15T18:01:58.129Z,6.65
2023-09-15T18:04:24.915Z,3.60
2023-09-15T18:06:51.698Z,6.20
2023-09-15T18:09:19.018Z,9.30
2023-09-15T18:11:45.905Z,4.00
2023-09-15T18:14:12.676Z,5.50
2023-09-15T18:16:39.577Z,6.53
2023-09-15T18:19:06.474Z,5.40
2023-09-15T18:21:33.599Z,4.15
2023-09-15T18:24:03.135Z,5.10
2023-09-15T18:26:30.233Z,7.25
2023-09-15T18:28:57.240Z,7.90
2023-09-15T18:31:27.256Z,5.28
2023-09-15T18:34:28.218Z,5.75
2023-09-15T18:37:09.922Z,6.82
2023-09-15T18:39:36.892Z,4.85
2023-09-15T18:42:04.671Z,6.40
2023-09-15T18:44:31.534Z,6.22
2023-09-15T18:46:58.655Z,7.57
2023-09-15T18:49:26.891Z,5.35
2023-09-15T18:51:53.635Z,11.00
2023-09-15T18:54:22.598Z,10.00
2023-09-15T18:56:49.592Z,5.47
2023-09-15T18:59:16.285Z,7.88
2023-09-15T19:01:43.158Z,6.63
2023-09-15T19:04:09.968Z,15.38
2023-09-15T19:06:36.742Z,5.78
2023-09-15T19:09:05.353Z,9.00
2023-09-15T19:11:32.588Z,7.00
2023-09-15T19:13:59.310Z,8.38
2023-09-15T19:16:26.284Z,5.60
2023-09-15T19:18:54.866Z,10.25
2023-09-15T19:21:23.535Z,6.53
2023-09-15T19:23:50.401Z,9.18
2023-09-15T19:26:17.152Z,6.57
2023-09-15T19:28:44.851Z,11.23
2023-09-15T19:31:11.574Z,8.30
2023-09-15T19:33:38.533Z,7.93
2023-09-15T19:36:05.466Z,6.10
2023-09-15T19:38:32.222Z,8.23
2023-09-15T19:40:58.998Z,9.10
2023-09-15T19:43:25.698Z,7.28
2023-09-15T19:45:52.480Z,8.15
2023-09-15T19:48:19.376Z,8.32
2023-09-15T19:50:46.710Z,6.60
2023-09-15T19:53:13.850Z,8.88
2023-09-15T19:55:43.013Z,7.63
2023-09-15T19:58:10.390Z,6.00
2023-09-15T20:00:38.089Z,7.05
2023-09-15T20:03:05.527Z,7.80
2023-09-15T20:05:33.768Z,8.40
2023-09-15T20:08:01.036Z,7.60
2023-09-15T20:10:27.917Z,8.50
2023-09-15T20:12:55.064Z,6.75
2023-09-15T20:15:22.314Z,8.82
2023-09-15T20:17:49.196Z,6.10
2023-09-15T20:20:18.184Z,6.72
2023-09-15T20:22:45.801Z,10.63
2023-09-15T20:25:13.069Z,5.70
2023-09-15T20:27:44.877Z,7.00
2023-09-15T20:30:13.933Z,9.75
2023-09-15T20:32:43.761Z,8.55
2023-09-15T20:35:10.533Z,9.45
2023-09-15T20:37:37.499Z,10.20
2023-09-15T20:40:05.089Z,7.25
2023-09-15T20:42:32.283Z,7.82
2023-09-15T20:44:59.531Z,8.75
2023-09-15T20:47:26.391Z,6.93
2023-09-15T20:49:53.234Z,7.43
2023-09-15T20:52:19.968Z,8.05
2023-09-15T20:54:48.394Z,8.63
2023-09-15T20:57:15.479Z,5.88
2023-09-15T20:59:42.168Z,9.30
2023-09-15T21:02:08.877Z,8.02
2023-09-15T21:04:38.108Z,6.93
2023-09-15T21:07:05.046Z,6.32
2023-09-15T21:09:31.855Z,7.25
2023-09-15T21:11:58.554Z,8.55
2023-09-15T21:14:25.367Z,8.45
2023-09-15T21:16:52.142Z,8.52
2023-09-15T21:19:19.565Z,6.03
2023-09-15T21:21:46.606Z,8.55
2023-09-15T21:24:13.397Z,11.38
2023-09-15T21:26:40.253Z,7.43
2023-09-15T21:29:07.107Z,10.25
2023-09-15T21:31:33.924Z,8.82
2023-09-15T21:34:01.629Z,8.60
2023-09-15T21:36:29.277Z,10.90
2023-09-15T21:38:56.307Z,10.98
2023-09-15T21:41:26.595Z,7.70
2023-09-15T21:43:53.358Z,5.72
2023-09-15T21:46:21.632Z,7.88
2023-09-15T21:48:49.085Z,7.95
2023-09-15T21:51:16.220Z,9.27
2023-09-15T21:53:43.014Z,6.10
2023-09-15T21:56:10.076Z,8.07
2023-09-15T21:58:37.030Z,10.10
2023-09-15T22:01:04.282Z,7.80
2023-09-15T22:03:31.252Z,11.07
2023-09-15T22:05:58.255Z,8.98
2023-09-15T22:08:25.113Z,9.25
2023-09-15T22:10:52.121Z,7.30
2023-09-15T22:13:19.971Z,6.47
2023-09-15T22:15:46.898Z,10.75
2023-09-15T22:18:14.564Z,9.52
2023-09-15T22:20:43.442Z,9.88
2023-09-15T22:23:11.969Z,8.00
2023-09-15T22:25:39.673Z,9.00
2023-09-15T22:28:07.599Z,8.05
2023-09-15T22:30:35.168Z,10.20
2023-09-15T22:33:05.724Z,9.57
2023-09-15T22:35:32.623Z,10.57
2023-09-15T22:37:59.390Z,9.00
2023-09-15T22:40:26.177Z,8.68
2023-09-15T22:42:53.470Z,7.88
2023-09-15T22:45:23.641Z,8.15
2023-09-15T22:47:58.514Z,9.10
2023-09-15T22:50:26.207Z,8.00
2023-09-15T22:52:53.803Z,10.07
2023-09-15T22:55:24.813Z,11.27
2023-09-15T22:57:51.733Z,8.32
2023-09-15T23:00:19.391Z,8.60
2023-09-15T23:02:51.078Z,7.57
2023-09-15T23:05:19.074Z,9.02
2023-09-15T23:07:46.193Z,10.88
2023-09-15T23:10:13.440Z,5.43
2023-09-15T23:12:40.869Z,6.32
2023-09-15T23:15:08.588Z,9.13
2023-09-15T23:17:35.574Z,8.35
2023-09-15T23:20:04.137Z,6.65
2023-09-15T23:22:31.452Z,8.25
2023-09-15T23:24:58.692Z,9.65
2023-09-15T23:27:25.850Z,9.82
2023-09-15T23:29:52.669Z,6.82
2023-09-15T23:32:19.429Z,10.48
2023-09-15T23:34:46.287Z,6.03
2023-09-15T23:37:13.011Z,6.18
2023-09-15T23:39:39.809Z,6.20
2023-09-15T23:42:08.000Z,8.05
2023-09-15T23:44:36.236Z,7.40
2023-09-15T23:47:03.258Z,5.78
2023-09-15T23:49:30.627Z,9.02
2023-09-15T23:51:57.423Z,9.07
2023-09-15T23:54:24.302Z,8.32
2023-09-15T23:56:51.001Z,7.28
2023-09-15T23:59:17.848Z,6.78
